LPA weather

Gran Canaria Airport
Gran Canaria Island, Canary Islands, Spain

Public forecast

Using degrees Celsius for public forecast. Weather courtesy of forecast.io.

Current aviation weather report (METAR) for Gran Canaria Airport

Retrieved 2019/12/06 02:30 UTC (19 minutes ago):

GCLP 060230Z 35011KT 9999 FEW030 BKN060 17/13 Q1014 NOSIG

Aviation forecast (TAF) for Gran Canaria Airport

Retrieved 2019-12-06 03:37 UTC (0 seconds ago):

TAF GCLP 060200Z 0603/0703 34015KT 9999 SCT030 TX21/0615Z TN16/0606Z BECMG 0607/0609 36025KT PROB40 TEMPO 0607/0619 36022G32KT PROB30 TEMPO 0603/0615 RA